Relevés horaires Chievres (Belgique)


Relevés horaires à Chievres - Jeudi 19 Mai 2016
Heure UTC1 Température [°C] Vent [km/h] Hum. [%] Pres.4 [hPa] Visi. [Km] Nébu. [octa] Préc.5 [mm] Cond.
2m. Res. Ros. Dir.2 Vit. Moy. Raf.3
23:00 10.1 9.7 7.9 SSO 5.6 5.6 9.3 86 1017.7(0.5/3h) 20 -- -- --
22:00 10.6 10.3 8.3 SSO 5.6 5.6 9.3 86 1017.3(0.9/3h) 20 -- -- --
21:00 12.2 12.1 8.6 OSO 5.6 0.0 0.0 79 1017.5(1.6/3h) 20 -- -- --
20:00 13.5 13.5 10.0 OSO 3.7 7.4 11.1 79 1017.1(2.0/3h) 14 -- -- --
19:00 15.5 15.5 9.9 O 5.6 7.4 9.3 69 1016.2(1.7/3h) 14 -- -- --
18:00 16.3 16.3 8.0 OSO 5.6 0.0 0.0 58 1015.7(1.3/3h) 20 -- 0/0h
--
17:00 17.6 17.6 6.3 O 5.6 5.6 11.1 47 1014.7(0.9/3h) 20 -- -- --
16:00 18.0 18.0 6.3 SO 5.6 7.4 11.1 46 1014.3(0.9/3h) 20 -- -- --
15:00 17.5 17.5 5.3 O 5.6 0.0 0.0 45 1014.2(1.1/3h) 20 -- -- --
14:00 16.5 16.5 6.6 O 5.6 5.6 13.0 52 1014(0.9/3h) 20 -- -- --
13:00 17.4 17.4 5.3 NNO 1.9 5.6 9.3 45 1013.5(1.1/3h) 20 -- -- --
12:00 16.2 16.2 5.6 NNO 1.9 0.0 0.0 49 1013.1(1.6/3h) 20 -- 0/0h
--
11:00 15.3 15.3 6.3 O 3.7 3.7 7.4 55 1013.1(2.4/3h) 20 -- -- --
10:00 12.8 12.8 6.8 O 3.7 5.6 7.4 67 1012.3(2.6/3h) 20 -- -- --
09:00 11.8 11.8 7.4 O 3.7 0.0 0.0 74 1011.6(2.7/3h) 20 -- -- --
08:00 10.6 10.6 7.7 NNO 1.9 3.7 5.6 82 1010.7(2.7/3h) 20 -- -- --
06:00 8.6 8.6 7.8 S 3.7 0.0 0.0 95 1008.7(2.1/3h) 12 -- 0.6/12h
--
05:00 7.9 7.9 7.1 NNO 1.9 3.7 5.6 95 1007.8(1.5/3h) 12 -- -- --
04:00 7.5 7.5 7.0 S 3.7 3.7 3.7 97 1007.1(0.9/3h) 12 -- -- --
03:00 8.0 8.0 7.4 NNO 3.7 0.0 0.0 96 1006.6(0.6/3h) 12 -- -- --
02:00 8.0 8.0 7.5 S 3.7 5.6 7.4 97 1006.2(0.1/3h) 12 -- -- --
01:00 8.1 8.1 7.6 S 3.7 5.6 7.4 97 1006.1(0.1/3h) 16 -- -- --
00:00 7.5 7.5 6.9 S 3.7 0.0 0.0 96 1005.8(0.2/3h) 18 -- 0.6/6h
Ciel clair

1 Coordinated Universal Time. Actuellement il est 18:00 locale et 16:00 UTC.

2 Le vent souffle depuis la direction indiquée vers la direction oposée.

3 Les rafales max. sont disponible 40 min après l'heure du relevé.

4 Pour les stations d'altitude (plus de 600m) le géopotentiel du niveau le plus proche de la pression obligatoire est indiqué.

5 Les stations disposant d'un diffuseur peuvent indiquer "trace". Cela signifie que des précipitations ont touchés le sol mais que la quantité est inférieure à 0.1 mm.

Récapitulatif de la journée
Température [°C] Vent [km/h] Ensoleillement4 [h] Precipitations totale5 [mm] Pression [Hpa]
Min1 Max.2 Moy.3 Max. Min Max.
7.1 18.7 3.6 13.0 0 h 0 min 0 1005.8 1017.7

1 Température minimale relevée entre 18:00 UTC la veille et 18:00 UTC le jour donné.

2 Température maximale relevée entre 06:00 UTC le jour donné et 06:00 UTC le lendemain.

3 Vent moyen de la journée basé sur les relevés horaires.

4 Ensoleillement en heures relevé entre 06:00 UTC la veille et 06:00 UTC le jour donné.

5 Précipitations totales tombées entre 06:00 UTC la jour donné et 06:00 UTC le lendemain.

Graphiques horaires